Time;durP1;ratioP1;P1;durP2;ratioP2;P2;SDS_P1;SDS_P2;PMS_P1;PMS_P2;Temp;Humidity;BMP_temperature;BMP_pressure;BME280_temperature;BME280_humidity;BME280_pressure;Samples;Min_cycle;Max_cycle;Signal;HPM_P1;HPM_P2
2023/05/04 00:02:19;;;;;;;4.10;3.70;;;4.60;99.90;4.30;101518.00;;;;4925327;28;116220;-73
2023/05/04 00:04:45;;;;;;;3.10;2.90;;;4.60;99.90;4.30;101506.00;;;;4925506;28;87875;-71
2023/05/04 00:07:11;;;;;;;4.30;3.67;;;4.50;99.90;4.30;101507.00;;;;4928142;28;108234;-72
2023/05/04 00:09:36;;;;;;;5.20;3.20;;;4.50;99.90;4.30;101506.00;;;;4925407;28;88014;-71
2023/05/04 00:12:02;;;;;;;9.87;3.50;;;4.60;99.90;4.30;101499.00;;;;4926325;28;104170;-71
2023/05/04 00:14:28;;;;;;;3.67;2.90;;;4.50;99.90;4.30;101504.00;;;;4924875;28;100417;-71
2023/05/04 00:16:54;;;;;;;3.93;2.97;;;4.50;99.90;4.20;101496.00;;;;4925457;28;108153;-71
2023/05/04 00:19:19;;;;;;;4.13;3.30;;;4.40;99.90;4.20;101493.00;;;;4926062;28;118871;-72
2023/05/04 00:21:45;;;;;;;4.10;2.57;;;4.40;99.90;4.10;101495.00;;;;4925517;28;88105;-71
2023/05/04 00:24:11;;;;;;;4.83;2.77;;;4.40;99.90;4.00;101489.00;;;;4925499;28;110348;-71
2023/05/04 00:26:36;;;;;;;7.13;2.87;;;4.30;99.90;4.00;101485.00;;;;4924764;28;106920;-71
2023/05/04 00:29:02;;;;;;;3.77;2.63;;;4.50;99.90;4.00;101491.00;;;;4927930;28;116190;-72
2023/05/04 00:31:28;;;;;;;2.80;2.60;;;4.20;99.90;4.00;101491.00;;;;4929759;28;118033;-71
2023/05/04 00:33:53;;;;;;;3.60;3.03;;;4.20;99.90;4.00;101500.00;;;;4923868;28;110672;-72
2023/05/04 00:36:19;;;;;;;3.80;2.77;;;4.20;99.90;3.90;101485.00;;;;4925556;28;110080;-73
2023/05/04 00:38:50;;;;;;;3.63;2.43;;;4.70;99.90;3.90;101492.00;;;;4927163;28;88080;-72
2023/05/04 00:41:17;;;;;;;3.33;2.87;;;4.20;99.90;3.90;101493.00;;;;4927124;28;88502;-72
2023/05/04 00:43:43;;;;;;;3.60;2.33;;;4.10;99.90;3.90;101489.00;;;;4928299;28;88099;-72
2023/05/04 00:46:13;;;;;;;3.47;2.73;;;4.10;99.90;3.90;101488.00;;;;4928529;28;101722;-72
2023/05/04 00:48:45;;;;;;;2.67;2.47;;;4.10;99.90;3.80;101486.00;;;;4929175;28;88142;-72
2023/05/04 00:51:13;;;;;;;2.77;2.57;;;4.10;99.90;3.80;101482.00;;;;4933792;28;89569;-72
2023/05/04 00:53:40;;;;;;;3.57;2.43;;;4.00;99.90;3.70;101490.00;;;;4931981;28;87831;-72
2023/05/04 00:56:06;;;;;;;3.10;2.53;;;4.00;99.90;3.70;101488.00;;;;4932119;28;88854;-73
2023/05/04 00:58:33;;;;;;;2.97;2.17;;;4.00;99.90;3.70;101482.00;;;;4927183;28;87990;-72
2023/05/04 01:00:59;;;;;;;2.97;2.53;;;3.90;99.90;3.60;101471.00;;;;4929454;28;94469;-72
2023/05/04 01:03:26;;;;;;;3.17;2.43;;;3.90;99.90;3.60;101477.00;;;;4927427;28;87842;-72
2023/05/04 01:06:41;;;;;;;2.83;2.00;;;3.80;99.90;3.40;101476.00;;;;4931575;28;87849;-72
2023/05/04 01:09:36;;;;;;;3.50;2.57;;;3.80;99.90;3.30;101480.00;;;;4929276;28;87853;-72
2023/05/04 01:12:30;;;;;;;3.07;2.50;;;3.70;99.90;3.20;101477.00;;;;4926969;28;87956;-72
2023/05/04 01:14:57;;;;;;;3.43;3.13;;;3.60;99.90;3.20;101468.00;;;;4922473;28;98706;-72
2023/05/04 01:17:23;;;;;;;2.40;2.10;;;3.50;99.90;3.20;101474.00;;;;4925736;28;107314;-72
2023/05/04 01:19:50;;;;;;;4.17;2.80;;;3.40;99.90;3.10;101462.00;;;;4931459;28;118769;-72
2023/05/04 01:22:16;;;;;;;2.67;2.40;;;3.40;99.90;3.00;101459.00;;;;4932119;28;89247;-72
2023/05/04 01:24:41;;;;;;;3.77;2.40;;;3.30;99.90;3.00;101471.00;;;;4927340;28;88341;-72
2023/05/04 01:27:19;;;;;;;2.80;2.10;;;3.30;99.90;2.90;101472.00;;;;4931797;28;109809;-72
2023/05/04 01:30:04;;;;;;;2.53;2.03;;;3.20;99.90;2.90;101467.00;;;;4929753;28;88649;-72
2023/05/04 01:32:31;;;;;;;3.33;2.97;;;3.20;99.90;2.90;101462.00;;;;4927132;28;106740;-72
2023/05/04 01:34:58;;;;;;;3.20;2.87;;;3.10;99.90;2.90;101469.00;;;;4931199;28;97401;-72
2023/05/04 01:37:24;;;;;;;2.37;1.97;;;3.10;99.90;2.90;101479.00;;;;4930197;28;93744;-72
2023/05/04 01:39:50;;;;;;;2.67;1.97;;;3.10;99.90;2.80;101476.00;;;;4935314;28;106148;-72
2023/05/04 01:42:16;;;;;;;2.37;2.17;;;3.10;99.90;2.70;101463.00;;;;4931643;28;87876;-72
2023/05/04 01:44:41;;;;;;;4.23;2.10;;;3.00;99.90;2.70;101468.00;;;;4933117;28;110021;-72
2023/05/04 01:47:07;;;;;;;3.47;2.03;;;3.00;99.90;2.60;101466.00;;;;4928583;28;109228;-73
2023/05/04 01:49:33;;;;;;;3.07;2.67;;;2.90;99.90;2.60;101469.00;;;;4916287;28;104780;-72
2023/05/04 01:51:58;;;;;;;3.07;2.40;;;2.90;99.90;2.50;101463.00;;;;4933337;28;100878;-72
2023/05/04 01:54:24;;;;;;;4.53;2.33;;;2.80;99.90;2.50;101462.00;;;;4926782;28;110562;-74
2023/05/04 01:56:50;;;;;;;2.00;1.80;;;2.80;99.90;2.60;101456.00;;;;4925498;28;87884;-71
2023/05/04 01:59:16;;;;;;;5.70;2.90;;;2.80;99.90;2.60;101465.00;;;;4929222;28;88734;-72
2023/05/04 02:01:41;;;;;;;4.63;2.40;;;2.80;99.90;2.60;101464.00;;;;4924724;28;117805;-71
2023/05/04 02:04:07;;;;;;;2.80;2.30;;;2.80;99.90;2.50;101466.00;;;;4912858;28;109654;-72
2023/05/04 02:06:33;;;;;;;2.63;2.20;;;2.80;99.90;2.50;101463.00;;;;4925149;28;88037;-72
2023/05/04 02:08:58;;;;;;;3.20;2.10;;;2.80;99.90;2.50;101462.00;;;;4924067;28;116365;-72
2023/05/04 02:11:24;;;;;;;2.67;2.40;;;2.80;99.90;2.40;101465.00;;;;4928881;28;88769;-72
2023/05/04 02:13:50;;;;;;;4.80;2.47;;;2.70;99.90;2.40;101472.00;;;;4926433;28;111060;-72
2023/05/04 02:16:16;;;;;;;2.20;1.93;;;2.70;99.90;2.40;101473.00;;;;4929880;28;107714;-72
2023/05/04 02:18:41;;;;;;;3.10;2.03;;;2.60;99.90;2.30;101473.00;;;;4927533;28;98294;-73
2023/05/04 02:21:07;;;;;;;2.50;2.00;;;2.70;99.90;2.30;101468.00;;;;4930597;28;87905;-72
2023/05/04 02:23:33;;;;;;;3.23;2.63;;;2.60;99.90;2.30;101459.00;;;;4926352;28;108076;-72
2023/05/04 02:25:58;;;;;;;6.33;3.47;;;3.20;99.90;2.20;101474.00;;;;4927881;28;107615;-72
2023/05/04 02:28:24;;;;;;;4.20;2.27;;;2.50;99.90;2.20;101464.00;;;;4925057;28;117143;-72
2023/05/04 02:30:50;;;;;;;3.57;2.57;;;2.60;99.90;2.20;101472.00;;;;4928433;28;116045;-72
2023/05/04 02:33:15;;;;;;;6.47;2.90;;;2.50;99.90;2.20;101478.00;;;;4926791;28;93466;-72
2023/05/04 02:35:41;;;;;;;3.97;3.00;;;3.00;99.90;2.20;101471.00;;;;4907814;28;108196;-72
2023/05/04 02:38:07;;;;;;;5.17;2.57;;;2.50;99.90;2.20;101477.00;;;;4927515;28;118622;-74
2023/05/04 02:40:32;;;;;;;3.83;2.30;;;2.50;99.90;2.20;101475.00;;;;4925965;28;117343;-72
2023/05/04 02:42:58;;;;;;;2.63;2.43;;;2.50;99.90;2.20;101485.00;;;;4926920;28;109565;-72
2023/05/04 02:45:24;;;;;;;2.37;2.00;;;2.50;99.90;2.10;101479.00;;;;4927624;28;107060;-72
2023/05/04 02:47:49;;;;;;;3.20;2.17;;;2.40;99.90;2.10;101482.00;;;;4926340;28;117701;-72
2023/05/04 02:50:15;;;;;;;3.53;2.60;;;2.40;99.90;2.00;101481.00;;;;4926742;28;117555;-72
2023/05/04 02:52:40;;;;;;;4.37;2.27;;;2.30;99.90;1.90;101488.00;;;;4909851;28;109490;-72
2023/05/04 02:55:07;;;;;;;2.67;2.30;;;2.30;99.90;1.80;101484.00;;;;4927439;28;108177;-71
2023/05/04 02:57:32;;;;;;;11.83;3.40;;;2.20;99.90;1.70;101485.00;;;;4927139;28;100159;-72
2023/05/04 02:59:58;;;;;;;3.50;2.57;;;2.50;99.90;1.70;101471.00;;;;4926948;28;116963;-72
2023/05/04 03:02:24;;;;;;;4.13;2.83;;;2.00;99.90;1.60;101476.00;;;;4923845;28;110655;-72
2023/05/04 03:04:49;;;;;;;6.20;3.20;;;1.90;99.90;1.50;101470.00;;;;4925868;28;109054;-72
2023/05/04 03:07:15;;;;;;;3.63;2.70;;;1.90;99.90;1.50;101478.00;;;;4927240;28;88250;-72
2023/05/04 03:09:41;;;;;;;5.33;3.13;;;1.80;99.90;1.40;101467.00;;;;4926947;28;115781;-73
2023/05/04 03:12:06;;;;;;;4.37;2.80;;;1.80;99.90;1.40;101468.00;;;;4930529;28;105334;-72
2023/05/04 03:14:32;;;;;;;4.07;3.27;;;1.70;99.90;1.40;101473.00;;;;4927819;28;87878;-72
2023/05/04 03:16:58;;;;;;;2.77;2.53;;;1.70;99.90;1.40;101466.00;;;;4925572;28;117075;-72
2023/05/04 03:19:23;;;;;;;4.03;3.00;;;1.70;99.90;1.50;101461.00;;;;4927978;28;87797;-72
2023/05/04 03:21:49;;;;;;;4.10;2.83;;;1.80;99.90;1.70;101471.00;;;;4925832;28;106398;-72
2023/05/04 03:24:17;;;;;;;5.13;3.57;;;1.90;99.90;1.70;101472.00;;;;4926692;28;88872;-72
2023/05/04 03:26:43;;;;;;;4.03;2.83;;;1.90;99.90;1.80;101476.00;;;;4924968;28;117938;-72
2023/05/04 03:29:09;;;;;;;3.93;3.00;;;2.10;99.90;2.00;101467.00;;;;4923784;28;117907;-72
2023/05/04 03:31:35;;;;;;;3.67;2.93;;;2.20;99.90;2.10;101467.00;;;;4928369;28;87878;-72
2023/05/04 03:34:02;;;;;;;3.63;2.80;;;2.30;99.90;2.20;101459.00;;;;4926985;28;87945;-74
2023/05/04 03:36:28;;;;;;;6.73;4.07;;;2.50;99.90;2.30;101462.00;;;;4925029;28;88117;-72
2023/05/04 03:38:53;;;;;;;3.23;2.63;;;2.60;99.90;2.40;101453.00;;;;4926605;28;108597;-72
2023/05/04 03:41:19;;;;;;;2.83;2.37;;;2.60;99.90;2.40;101461.00;;;;4908285;28;107089;-72
2023/05/04 03:43:48;;;;;;;3.87;2.80;;;2.70;99.90;2.50;101457.00;;;;4927069;28;108512;-72
2023/05/04 03:46:14;;;;;;;4.37;2.37;;;2.90;99.90;2.60;101458.00;;;;4925916;28;118901;-72
2023/05/04 03:48:40;;;;;;;2.83;2.43;;;3.20;99.90;2.80;101459.00;;;;4924714;28;88802;-72
2023/05/04 03:51:06;;;;;;;2.23;1.87;;;3.00;99.90;2.80;101464.00;;;;4925889;28;87739;-72
2023/05/04 03:53:35;;;;;;;4.50;2.37;;;3.10;99.90;2.90;101457.00;;;;4928209;28;106336;-72
2023/05/04 03:56:02;;;;;;;3.63;1.80;;;3.10;99.90;2.90;101464.00;;;;4929054;28;88092;-73
2023/05/04 03:58:27;;;;;;;2.47;2.27;;;3.20;99.90;3.00;101461.00;;;;4924491;28;87805;-72
2023/05/04 04:00:53;;;;;;;3.07;2.40;;;3.20;99.90;3.10;101462.00;;;;4925549;28;109852;-72
2023/05/04 04:03:19;;;;;;;2.83;1.93;;;3.40;99.90;3.20;101472.00;;;;4927483;28;100866;-73
2023/05/04 04:05:45;;;;;;;5.80;3.17;;;4.10;99.90;3.30;101461.00;;;;4930272;28;91770;-72
2023/05/04 04:08:10;;;;;;;4.30;2.10;;;3.00;99.90;3.40;101461.00;;;;4929342;28;99605;-72
2023/05/04 04:10:36;;;;;;;5.67;2.90;;;3.60;99.90;3.50;101464.00;;;;4924460;28;87714;-72
2023/05/04 04:13:02;;;;;;;2.10;1.90;;;3.70;99.90;3.50;101471.00;;;;4926942;28;108818;-72
2023/05/04 04:15:27;;;;;;;4.73;2.90;;;3.80;99.90;3.50;101467.00;;;;4928291;28;115850;-72
2023/05/04 04:17:53;;;;;;;2.57;2.37;;;3.80;99.90;3.50;101459.00;;;;4925118;28;116729;-72
2023/05/04 04:20:20;;;;;;;3.60;2.50;;;3.80;99.90;3.40;101456.00;;;;4928054;28;87907;-72
2023/05/04 04:22:45;;;;;;;1.80;1.70;;;3.70;99.90;3.30;101460.00;;;;4931595;28;87855;-72
2023/05/04 04:25:11;;;;;;;4.43;2.03;;;3.60;99.90;3.20;101464.00;;;;4926223;28;116864;-72
2023/05/04 04:27:37;;;;;;;2.53;2.27;;;3.50;99.90;3.20;101467.00;;;;4927683;28;112671;-72
2023/05/04 04:30:04;;;;;;;1.93;1.73;;;3.40;99.90;3.30;101455.00;;;;4926980;28;87180;-72
2023/05/04 04:32:30;;;;;;;3.50;2.83;;;3.60;99.90;3.50;101472.00;;;;4931725;28;88029;-72
2023/05/04 04:34:55;;;;;;;4.53;3.10;;;3.70;99.90;3.60;101469.00;;;;4928316;28;89073;-72
2023/05/04 04:37:21;;;;;;;4.03;3.00;;;4.00;99.90;3.70;101472.00;;;;4927208;28;117849;-73
2023/05/04 04:39:47;;;;;;;4.10;2.67;;;3.90;99.90;3.80;101475.00;;;;4930257;28;87930;-73
2023/05/04 04:42:12;;;;;;;2.63;2.43;;;4.00;99.90;3.90;101472.00;;;;4926144;28;107647;-72
2023/05/04 04:44:38;;;;;;;2.40;2.13;;;4.20;99.90;4.00;101470.00;;;;4927786;28;117579;-72
2023/05/04 04:47:05;;;;;;;3.30;2.87;;;4.20;99.90;4.10;101479.00;;;;4929386;28;115977;-72
2023/05/04 04:49:31;;;;;;;3.60;2.20;;;4.30;99.90;4.30;101467.00;;;;4926294;28;88707;-72
2023/05/04 04:51:56;;;;;;;3.17;2.87;;;4.30;99.90;4.50;101463.00;;;;4925343;28;87857;-72
2023/05/04 04:54:28;;;;;;;3.30;2.47;;;4.70;99.90;4.70;101468.00;;;;4927868;28;115457;-72
2023/05/04 04:56:54;;;;;;;4.63;2.90;;;4.80;99.90;4.90;101471.00;;;;4923848;28;87765;-72
2023/05/04 04:59:22;;;;;;;4.60;3.07;;;5.00;99.90;5.20;101474.00;;;;4924337;28;110414;-72
2023/05/04 05:01:48;;;;;;;3.80;2.63;;;5.30;99.90;5.40;101468.00;;;;4929225;28;88923;-72
2023/05/04 05:04:14;;;;;;;3.67;2.80;;;5.50;99.90;5.70;101483.00;;;;4926742;28;88660;-72
2023/05/04 05:06:40;;;;;;;3.17;2.87;;;5.70;99.90;5.80;101478.00;;;;4925260;28;88409;-72
2023/05/04 05:09:06;;;;;;;2.30;2.10;;;5.90;99.90;6.00;101483.00;;;;4944691;28;87996;-72
2023/05/04 05:11:32;;;;;;;4.40;2.20;;;6.20;99.90;6.20;101479.00;;;;4931319;28;108751;-72
2023/05/04 05:13:58;;;;;;;3.23;2.50;;;6.30;99.90;6.50;101483.00;;;;4928421;28;93188;-72
2023/05/04 05:16:24;;;;;;;3.47;2.37;;;6.50;99.90;6.70;101484.00;;;;4932230;28;90100;-72
2023/05/04 05:18:50;;;;;;;2.90;2.13;;;7.30;99.90;7.00;101487.00;;;;4928771;28;96629;-72
2023/05/04 05:21:16;;;;;;;5.73;3.13;;;7.00;99.90;7.40;101481.00;;;;4930641;28;87945;-72
2023/05/04 05:23:41;;;;;;;2.53;2.00;;;7.60;99.90;7.60;101487.00;;;;4940846;28;117564;-72
2023/05/04 05:26:07;;;;;;;3.03;2.37;;;7.60;99.90;7.90;101485.00;;;;4927831;28;117715;-73
2023/05/04 05:28:33;;;;;;;2.03;1.57;;;7.90;99.90;8.10;101481.00;;;;4930241;28;88052;-72
2023/05/04 05:30:59;;;;;;;2.40;2.20;;;8.10;99.90;8.30;101479.00;;;;4928550;28;108629;-72
2023/05/04 05:33:24;;;;;;;2.03;1.60;;;8.30;99.90;8.60;101494.00;;;;4927282;28;105709;-72
2023/05/04 05:35:51;;;;;;;2.73;2.10;;;8.60;99.90;8.90;101481.00;;;;4944061;28;90282;-72
2023/05/04 05:38:17;;;;;;;2.77;2.13;;;8.90;99.90;9.20;101485.00;;;;4929844;28;87791;-72
2023/05/04 05:40:43;;;;;;;3.77;2.57;;;9.10;99.90;9.40;101489.00;;;;4927673;28;110101;-72
2023/05/04 05:43:08;;;;;;;5.13;2.40;;;9.40;99.90;9.60;101491.00;;;;4928995;28;110797;-73
2023/05/04 05:45:34;;;;;;;4.83;2.63;;;9.50;99.90;9.70;101488.00;;;;4929139;28;107326;-72
2023/05/04 05:47:59;;;;;;;2.97;2.33;;;9.70;99.90;9.80;101483.00;;;;4926731;28;108448;-72
2023/05/04 05:50:45;;;;;;;2.47;2.03;;;9.80;99.90;10.00;101489.00;;;;4926951;28;88958;-73
2023/05/04 05:53:11;;;;;;;4.63;1.97;;;10.00;99.90;10.20;101485.00;;;;4926099;28;117490;-73
2023/05/04 05:55:39;;;;;;;4.63;2.40;;;10.50;99.90;10.40;101484.00;;;;4929842;28;116292;-72
2023/05/04 05:58:05;;;;;;;2.67;1.73;;;10.40;99.90;10.70;101484.00;;;;4927582;28;87802;-72
2023/05/04 06:00:30;;;;;;;4.80;2.63;;;10.60;99.90;10.90;101485.00;;;;4926324;28;109163;-73
2023/05/04 06:02:56;;;;;;;2.53;2.33;;;10.90;99.90;11.20;101480.00;;;;4927018;28;116613;-72
2023/05/04 06:05:22;;;;;;;3.03;2.47;;;11.10;99.90;11.40;101483.00;;;;4927001;28;117521;-72
2023/05/04 06:07:48;;;;;;;1.77;1.67;;;11.30;99.90;11.60;101477.00;;;;4927656;28;87282;-71
2023/05/04 06:10:14;;;;;;;3.77;2.63;;;11.60;99.90;11.90;101490.00;;;;4928507;28;94403;-72
2023/05/04 06:12:39;;;;;;;2.93;2.00;;;11.80;99.70;12.10;101478.00;;;;4929090;28;103133;-72
2023/05/04 06:15:07;;;;;;;2.73;2.23;;;12.10;98.90;12.40;101483.00;;;;4928186;28;117059;-72
2023/05/04 06:17:32;;;;;;;2.47;1.80;;;12.30;98.40;12.60;101492.00;;;;4928682;28;88153;-72
2023/05/04 06:19:58;;;;;;;10.20;2.10;;;12.50;98.00;12.90;101488.00;;;;4927511;28;96624;-72
2023/05/04 06:22:24;;;;;;;1.83;1.37;;;12.80;97.60;13.20;101488.00;;;;4925536;28;89375;-71
2023/05/04 06:24:50;;;;;;;2.30;2.10;;;13.10;97.00;13.50;101492.00;;;;4927423;28;105440;-72
2023/05/04 06:27:15;;;;;;;2.17;1.97;;;13.40;96.30;13.80;101496.00;;;;4929243;28;87772;-72
2023/05/04 06:29:41;;;;;;;3.23;2.03;;;13.70;95.60;14.10;101493.00;;;;4931373;28;102316;-72
2023/05/04 06:32:08;;;;;;;4.43;1.80;;;14.00;95.00;14.40;101486.00;;;;4928457;28;100324;-71
2023/05/04 06:34:34;;;;;;;4.03;2.00;;;14.30;94.10;14.70;101493.00;;;;4925129;28;117176;-72
2023/05/04 06:37:00;;;;;;;3.47;1.17;;;14.50;92.80;15.00;101491.00;;;;4929914;28;87926;-72
2023/05/04 06:39:25;;;;;;;2.08;1.60;;;14.80;91.90;15.30;101490.00;;;;4929009;28;88974;-72
2023/05/04 06:41:54;;;;;;;1.63;1.35;;;15.10;89.70;15.50;101477.00;;;;4939612;28;118580;-73
2023/05/04 06:44:21;;;;;;;1.58;1.48;;;15.40;88.50;15.70;101487.00;;;;4929324;28;106572;-73
2023/05/04 06:46:46;;;;;;;3.08;1.80;;;15.60;86.40;16.00;101495.00;;;;4927096;28;87930;-72
2023/05/04 06:49:12;;;;;;;2.08;1.75;;;15.80;85.60;16.30;101488.00;;;;4926923;28;109261;-71
2023/05/04 06:51:38;;;;;;;2.03;1.52;;;16.10;83.80;16.50;101499.00;;;;4926784;28;117937;-71
2023/05/04 06:54:04;;;;;;;2.90;1.73;;;16.40;82.10;16.80;101490.00;;;;4932812;28;87998;-71
2023/05/04 06:56:30;;;;;;;4.57;1.92;;;16.60;81.30;17.10;101496.00;;;;4929613;28;110490;-71
2023/05/04 06:58:56;;;;;;;1.92;1.40;;;16.90;79.30;17.20;101491.00;;;;4921660;28;109541;-73
2023/05/04 07:01:21;;;;;;;4.38;1.52;;;17.10;76.10;17.40;101488.00;;;;4925619;28;117874;-71
2023/05/04 07:03:47;;;;;;;1.30;1.20;;;17.30;73.80;17.60;101486.00;;;;4927523;28;88983;-72
2023/05/04 07:06:13;;;;;;;2.22;1.20;;;17.40;72.40;17.60;101491.00;;;;4926244;28;87953;-72
2023/05/04 07:08:38;;;;;;;3.25;1.15;;;17.50;70.10;17.80;101486.00;;;;4925090;28;108622;-72
2023/05/04 07:11:04;;;;;;;1.55;1.13;;;17.60;69.70;17.90;101490.00;;;;4925154;28;117982;-72
2023/05/04 07:13:31;;;;;;;1.75;1.65;;;17.80;68.70;18.10;101485.00;;;;4925785;28;118193;-72
2023/05/04 07:15:56;;;;;;;2.90;1.75;;;18.00;66.80;18.20;101483.00;;;;4924546;28;87913;-71
2023/05/04 07:18:22;;;;;;;1.58;1.02;;;18.10;65.60;18.40;101476.00;;;;4927306;28;108921;-71
2023/05/04 07:20:48;;;;;;;4.57;1.30;;;18.20;63.50;18.40;101470.00;;;;4928823;28;116967;-72
2023/05/04 07:23:13;;;;;;;1.13;0.93;;;18.30;61.80;18.50;101466.00;;;;4924205;28;117642;-72
2023/05/04 07:25:39;;;;;;;2.53;1.45;;;18.40;61.10;18.50;101473.00;;;;4923597;28;110495;-72
2023/05/04 07:28:05;;;;;;;2.47;1.20;;;18.50;58.70;18.50;101474.00;;;;4938851;28;88855;-72
2023/05/04 07:30:31;;;;;;;1.63;1.00;;;18.50;58.00;18.50;101470.00;;;;4924815;28;116136;-72
2023/05/04 07:32:56;;;;;;;3.03;1.50;;;18.50;57.90;18.80;101470.00;;;;4927081;28;87908;-73
2023/05/04 07:35:22;;;;;;;1.73;1.35;;;18.60;58.00;19.00;101470.00;;;;4926209;28;110566;-72
2023/05/04 07:37:48;;;;;;;1.77;1.35;;;18.90;57.90;19.40;101474.00;;;;4911964;28;87870;-72
2023/05/04 07:40:15;;;;;;;0.95;0.95;;;19.20;57.90;19.70;101473.00;;;;4925816;28;88289;-73
2023/05/04 07:42:40;;;;;;;10.15;1.38;;;19.50;57.40;19.90;101466.00;;;;4926019;28;87899;-71
2023/05/04 07:45:08;;;;;;;1.30;1.20;;;19.70;55.00;20.10;101467.00;;;;4925891;28;87346;-72
2023/05/04 07:47:35;;;;;;;5.55;1.38;;;19.90;55.30;20.10;101477.00;;;;4925979;28;87811;-72
2023/05/04 07:50:01;;;;;;;1.20;1.10;;;21.10;51.20;19.90;101463.00;;;;4923480;28;88258;-71
2023/05/04 07:52:26;;;;;;;1.42;0.90;;;19.90;50.30;19.70;101462.00;;;;4921775;28;109189;-70
2023/05/04 07:54:53;;;;;;;2.67;1.45;;;19.70;50.80;19.70;101463.00;;;;4927505;28;110385;-70
2023/05/04 07:57:20;;;;;;;2.17;1.40;;;19.70;51.20;19.80;101463.00;;;;4931129;28;88584;-71
2023/05/04 07:59:46;;;;;;;2.00;1.23;;;19.70;50.90;19.90;101467.00;;;;4934099;28;89200;-71
2023/05/04 08:02:11;;;;;;;3.80;1.48;;;19.80;51.80;20.20;101474.00;;;;4927870;28;117221;-72
2023/05/04 08:04:37;;;;;;;1.30;0.85;;;20.00;51.00;20.30;101472.00;;;;4929045;28;109725;-70
2023/05/04 08:07:03;;;;;;;1.38;1.23;;;20.20;46.50;20.40;101484.00;;;;4926628;28;109274;-71
2023/05/04 08:09:28;;;;;;;3.97;1.02;;;20.20;46.60;20.30;101483.00;;;;4931393;28;115896;-73
2023/05/04 08:11:54;;;;;;;0.77;0.75;;;20.20;47.00;20.40;101476.00;;;;4930622;28;117059;-70
2023/05/04 08:14:20;;;;;;;4.68;1.60;;;20.20;46.10;20.30;101470.00;;;;4930789;28;87998;-73
2023/05/04 08:16:46;;;;;;;1.05;0.95;;;20.20;44.00;20.30;101467.00;;;;4932155;28;88741;-71
2023/05/04 08:19:12;;;;;;;1.90;0.80;;;20.20;44.50;20.20;101468.00;;;;4926197;28;89081;-71
2023/05/04 08:21:39;;;;;;;1.10;0.90;;;20.10;42.90;20.10;101468.00;;;;4928102;28;116936;-72
2023/05/04 08:24:05;;;;;;;2.33;0.80;;;20.10;43.30;19.90;101467.00;;;;4926670;28;88022;-72
2023/05/04 08:26:31;;;;;;;0.98;0.90;;;19.90;43.70;20.00;101464.00;;;;4932602;28;87959;-71
2023/05/04 08:29:09;;;;;;;2.60;1.30;;;19.90;43.30;20.10;101462.00;;;;4928249;28;106715;-71
2023/05/04 08:31:35;;;;;;;1.63;0.80;;;19.90;42.20;19.70;101455.00;;;;4929300;28;87826;-71
2023/05/04 08:34:01;;;;;;;1.02;0.77;;;19.70;41.60;19.50;101447.00;;;;4929072;28;87063;-73
2023/05/04 08:36:26;;;;;;;2.67;1.10;;;19.50;42.30;19.40;101456.00;;;;4928992;28;87859;-71
2023/05/04 08:38:52;;;;;;;1.65;0.98;;;19.40;42.90;19.40;101452.00;;;;4928203;28;116869;-71
2023/05/04 08:41:18;;;;;;;3.38;1.20;;;19.30;43.20;19.40;101452.00;;;;4930050;28;88974;-70
2023/05/04 08:43:45;;;;;;;1.65;0.98;;;19.40;42.10;19.30;101443.00;;;;4924397;28;99957;-72
2023/05/04 08:46:12;;;;;;;2.10;1.40;;;19.20;43.10;19.40;101453.00;;;;4932957;28;88025;-70
2023/05/04 08:48:38;;;;;;;1.58;1.02;;;19.20;42.90;19.40;101441.00;;;;4930346;28;95390;-73
2023/05/04 08:51:05;;;;;;;0.93;0.80;;;19.20;43.00;19.50;101448.00;;;;4926921;28;88127;-71
2023/05/04 08:53:35;;;;;;;1.70;1.15;;;19.30;42.00;19.50;101439.00;;;;4925833;28;111747;-72
2023/05/04 08:56:03;;;;;;;1.20;1.10;;;19.40;42.40;19.50;101438.00;;;;4932651;28;88132;-71
2023/05/04 08:58:30;;;;;;;0.80;0.73;;;19.40;42.70;19.60;101443.00;;;;4927617;28;87763;-70
2023/05/04 09:00:58;;;;;;;1.13;1.02;;;19.40;42.80;19.70;101441.00;;;;4928804;28;87927;-72
2023/05/04 09:03:24;;;;;;;1.00;0.85;;;19.50;42.00;19.80;101438.00;;;;4930173;28;87813;-71
2023/05/04 09:05:51;;;;;;;1.10;0.88;;;19.60;41.90;20.00;101434.00;;;;4924035;28;88796;-72
2023/05/04 09:08:19;;;;;;;1.20;0.95;;;19.70;41.70;20.20;101452.00;;;;4928737;28;87808;-71
2023/05/04 09:10:45;;;;;;;0.98;0.88;;;19.90;41.00;20.20;101450.00;;;;4929416;28;88375;-70
2023/05/04 09:13:11;;;;;;;2.42;1.00;;;20.00;40.30;20.20;101446.00;;;;4928206;28;109957;-74
2023/05/04 09:15:36;;;;;;;0.80;0.80;;;19.90;40.40;20.10;101449.00;;;;4910317;28;88389;-72
2023/05/04 09:18:05;;;;;;;1.00;0.70;;;19.90;40.90;20.20;101438.00;;;;4924873;28;88102;-70
2023/05/04 09:20:43;;;;;;;1.70;0.75;;;19.90;41.00;20.50;101443.00;;;;4927222;28;88876;-71
2023/05/04 09:23:10;;;;;;;4.88;1.05;;;20.10;41.30;20.50;101444.00;;;;4929319;28;87027;-72
2023/05/04 09:25:47;;;;;;;0.93;0.77;;;20.30;39.60;20.50;101444.00;;;;4925747;28;108987;-71
2023/05/04 09:28:14;;;;;;;3.63;1.80;;;20.20;39.90;20.40;101433.00;;;;4942100;28;90518;-71
2023/05/04 09:30:40;;;;;;;0.60;0.60;;;20.20;40.70;20.40;101431.00;;;;4928493;28;88866;-71
2023/05/04 09:33:06;;;;;;;3.03;1.25;;;20.10;40.30;20.40;101429.00;;;;4925464;28;101323;-71
2023/05/04 09:35:32;;;;;;;2.47;1.00;;;20.10;40.70;20.70;101426.00;;;;4931813;28;108598;-71
2023/05/04 09:37:58;;;;;;;4.03;1.67;;;20.30;42.00;21.00;101414.00;;;;4926644;28;89030;-72
2023/05/04 09:40:31;;;;;;;2.17;1.20;;;20.60;40.50;21.10;101424.00;;;;4925791;28;105041;-72
2023/05/04 09:42:57;;;;;;;1.17;0.90;;;20.70;39.50;20.90;101411.00;;;;4927409;28;88034;-73
2023/05/04 09:45:23;;;;;;;0.95;0.77;;;20.70;40.10;20.90;101415.00;;;;4931143;28;109285;-73
2023/05/04 09:47:51;;;;;;;2.13;0.90;;;20.70;40.60;21.00;101415.00;;;;4925665;28;116365;-72
2023/05/04 09:50:24;;;;;;;2.60;1.00;;;20.70;40.00;20.90;101409.00;;;;4924311;28;88117;-72
2023/05/04 09:52:50;;;;;;;1.15;1.05;;;20.70;39.30;20.90;101408.00;;;;4924834;28;88065;-71
2023/05/04 09:55:18;;;;;;;0.93;0.90;;;20.60;39.00;20.70;101415.00;;;;4924100;28;88908;-72
2023/05/04 09:57:46;;;;;;;1.27;0.75;;;20.50;38.30;20.60;101400.00;;;;4926157;28;89308;-73
2023/05/04 10:00:16;;;;;;;0.80;0.70;;;20.40;38.30;20.60;101409.00;;;;4928818;28;89371;-74
2023/05/04 10:02:43;;;;;;;2.55;1.40;;;20.30;38.10;20.70;101404.00;;;;4924752;28;88224;-71
2023/05/04 10:05:17;;;;;;;1.40;1.25;;;20.40;38.70;20.80;101392.00;;;;4928715;28;87991;-71
2023/05/04 10:07:45;;;;;;;1.55;0.93;;;20.50;38.70;20.70;101395.00;;;;4923156;28;87896;-73
2023/05/04 10:10:13;;;;;;;1.88;1.08;;;20.50;38.60;20.90;101389.00;;;;4931317;28;88492;-72
2023/05/04 10:12:39;;;;;;;2.63;1.10;;;20.50;39.30;21.10;101400.00;;;;4924503;28;101038;-71
2023/05/04 10:15:10;;;;;;;1.50;1.33;;;20.70;39.90;21.30;101391.00;;;;4927119;28;87677;-71
2023/05/04 10:18:06;;;;;;;1.02;0.93;;;20.90;39.00;21.30;101390.00;;;;4927984;28;88187;-72
2023/05/04 10:21:01;;;;;;;0.75;0.68;;;20.90;38.10;21.60;101386.00;;;;4927134;28;110917;-72
2023/05/04 10:24:04;;;;;;;2.10;1.08;;;21.10;38.60;21.80;101380.00;;;;4925785;28;91966;-70
2023/05/04 10:27:18;;;;;;;1.27;0.95;;;21.30;38.20;22.00;101386.00;;;;4944783;28;88018;-72
2023/05/04 10:29:49;;;;;;;1.45;1.13;;;21.50;37.80;22.10;101378.00;;;;4929002;28;88004;-72
2023/05/04 10:32:22;;;;;;;0.70;0.60;;;21.60;37.40;22.30;101379.00;;;;4928791;28;88607;-71
2023/05/04 10:34:49;;;;;;;2.72;0.85;;;21.80;36.70;22.40;101362.00;;;;4923969;28;87862;-70
2023/05/04 10:37:17;;;;;;;1.20;1.10;;;21.90;37.40;22.90;101370.00;;;;4928327;28;87841;-70
2023/05/04 10:39:52;;;;;;;0.82;0.70;;;22.20;38.00;23.10;101371.00;;;;4928962;28;87533;-73
2023/05/04 10:42:18;;;;;;;1.88;1.00;;;22.60;36.30;23.10;101365.00;;;;4926468;28;88116;-72
2023/05/04 10:45:03;;;;;;;1.40;0.98;;;22.60;35.70;23.20;101356.00;;;;4929745;28;87930;-71
2023/05/04 10:47:34;;;;;;;0.80;0.75;;;22.70;36.70;23.60;101352.00;;;;4940714;28;88907;-72
2023/05/04 10:50:03;;;;;;;1.27;1.00;;;23.00;37.30;24.10;101349.00;;;;4927167;28;88224;-72
2023/05/04 10:52:52;;;;;;;5.00;0.75;;;23.40;35.90;24.30;101338.00;;;;4927471;28;88952;-71
2023/05/04 10:55:19;;;;;;;0.73;0.60;;;23.70;34.40;24.10;101336.00;;;;4931796;28;88058;-71